Disclaimer

Please do not use the information listed here in-flight or in-navigation, as they are not provided to us by the airports but are provided by volunteers, so they might be outdated.

Search


Regions


Airport information page

No radio frequency information is available.

Airport informations:
Latitude: 35° 32' 32.80" N
Longitude: 000° 31' 56.20" W
Elevation: 367 feet - 112 meters
Operating hours: N/A
Operating agency: Military
Timezone: N/A
Fuel: N/A

Runway information:
08/26 - 9037 x 140 feet< - >2754 x 43 meters

Recent METARs:
DAOL 160100Z 02002KT CAVOK 05/02 Q1026
DAOL 160200Z 15004KT CAVOK 05/02 Q1025
DAOL 160200Z 15004KT CAVOK 05/02 Q1025

Airport on the map: